sensor_id;sensor_type;location;lat;lon;timestamp;temperature;humidity
10192;DHT22;17580;50.850;4.504;2023-02-28T00:01:21;2.10;42.20
10192;DHT22;17580;50.850;4.504;2023-02-28T00:03:48;2.10;42.10
10192;DHT22;17580;50.850;4.504;2023-02-28T00:06:15;2.10;42.10
10192;DHT22;17580;50.850;4.504;2023-02-28T00:08:43;2.10;42.70
10192;DHT22;17580;50.850;4.504;2023-02-28T00:11:11;2.10;43.60
10192;DHT22;17580;50.850;4.504;2023-02-28T00:13:41;2.10;43.60
10192;DHT22;17580;50.850;4.504;2023-02-28T00:16:09;2.10;43.00
10192;DHT22;17580;50.850;4.504;2023-02-28T00:18:38;2.10;42.40
10192;DHT22;17580;50.850;4.504;2023-02-28T00:21:06;2.10;43.70
10192;DHT22;17580;50.850;4.504;2023-02-28T00:23:33;2.00;43.30
10192;DHT22;17580;50.850;4.504;2023-02-28T00:26:00;1.90;43.70
10192;DHT22;17580;50.850;4.504;2023-02-28T00:28:28;1.90;45.00
10192;DHT22;17580;50.850;4.504;2023-02-28T00:30:55;1.90;44.40
10192;DHT22;17580;50.850;4.504;2023-02-28T00:33:22;1.80;44.20
10192;DHT22;17580;50.850;4.504;2023-02-28T00:35:51;2.00;44.80
10192;DHT22;17580;50.850;4.504;2023-02-28T00:38:18;2.00;44.20
10192;DHT22;17580;50.850;4.504;2023-02-28T00:40:45;1.90;44.70
10192;DHT22;17580;50.850;4.504;2023-02-28T00:43:12;1.90;45.50
10192;DHT22;17580;50.850;4.504;2023-02-28T00:45:39;1.90;45.40
10192;DHT22;17580;50.850;4.504;2023-02-28T00:48:06;1.80;44.40
10192;DHT22;17580;50.850;4.504;2023-02-28T00:50:33;1.80;45.00
10192;DHT22;17580;50.850;4.504;2023-02-28T00:53:01;1.80;45.80
10192;DHT22;17580;50.850;4.504;2023-02-28T00:55:28;1.70;46.00
10192;DHT22;17580;50.850;4.504;2023-02-28T00:57:55;1.70;46.10
10192;DHT22;17580;50.850;4.504;2023-02-28T01:00:22;1.70;46.30
10192;DHT22;17580;50.850;4.504;2023-02-28T01:02:49;1.80;46.70
10192;DHT22;17580;50.850;4.504;2023-02-28T01:05:16;1.80;47.10
10192;DHT22;17580;50.850;4.504;2023-02-28T01:07:43;1.80;47.90
10192;DHT22;17580;50.850;4.504;2023-02-28T01:10:12;1.80;46.90
10192;DHT22;17580;50.850;4.504;2023-02-28T01:12:39;1.70;46.80
10192;DHT22;17580;50.850;4.504;2023-02-28T01:15:09;1.60;47.50
10192;DHT22;17580;50.850;4.504;2023-02-28T01:17:36;1.60;48.00
10192;DHT22;17580;50.850;4.504;2023-02-28T01:20:04;1.50;49.70
10192;DHT22;17580;50.850;4.504;2023-02-28T01:22:31;1.50;48.70
10192;DHT22;17580;50.850;4.504;2023-02-28T01:24:58;1.40;48.60
10192;DHT22;17580;50.850;4.504;2023-02-28T01:27:26;1.60;49.40
10192;DHT22;17580;50.850;4.504;2023-02-28T01:29:54;1.60;49.50
10192;DHT22;17580;50.850;4.504;2023-02-28T01:32:21;1.60;49.60
10192;DHT22;17580;50.850;4.504;2023-02-28T01:34:48;1.50;49.90
10192;DHT22;17580;50.850;4.504;2023-02-28T01:37:15;1.50;50.10
10192;DHT22;17580;50.850;4.504;2023-02-28T01:39:42;1.50;50.60
10192;DHT22;17580;50.850;4.504;2023-02-28T01:42:09;1.60;50.00
10192;DHT22;17580;50.850;4.504;2023-02-28T01:44:58;1.50;50.80
10192;DHT22;17580;50.850;4.504;2023-02-28T01:47:28;1.50;50.40
10192;DHT22;17580;50.850;4.504;2023-02-28T01:49:56;1.40;51.20
10192;DHT22;17580;50.850;4.504;2023-02-28T01:52:24;1.50;50.80
10192;DHT22;17580;50.850;4.504;2023-02-28T01:54:55;1.30;51.50
10192;DHT22;17580;50.850;4.504;2023-02-28T01:57:26;1.20;51.30
10192;DHT22;17580;50.850;4.504;2023-02-28T01:59:59;1.40;51.30
10192;DHT22;17580;50.850;4.504;2023-02-28T02:02:29;1.40;52.10
10192;DHT22;17580;50.850;4.504;2023-02-28T02:04:59;1.20;51.60
10192;DHT22;17580;50.850;4.504;2023-02-28T02:07:32;1.40;52.10
10192;DHT22;17580;50.850;4.504;2023-02-28T02:10:02;1.20;52.30
10192;DHT22;17580;50.850;4.504;2023-02-28T02:12:42;1.20;53.30
10192;DHT22;17580;50.850;4.504;2023-02-28T02:15:16;1.20;53.30
10192;DHT22;17580;50.850;4.504;2023-02-28T02:17:49;1.20;53.40
10192;DHT22;17580;50.850;4.504;2023-02-28T02:26:58;1.10;54.00
10192;DHT22;17580;50.850;4.504;2023-02-28T02:30:07;1.10;54.00
10192;DHT22;17580;50.850;4.504;2023-02-28T02:35:47;0.90;55.20
10192;DHT22;17580;50.850;4.504;2023-02-28T02:38:19;1.00;55.50
10192;DHT22;17580;50.850;4.504;2023-02-28T02:40:56;1.00;55.90
10192;DHT22;17580;50.850;4.504;2023-02-28T02:43:29;1.00;55.90
10192;DHT22;17580;50.850;4.504;2023-02-28T02:46:02;0.80;56.00
10192;DHT22;17580;50.850;4.504;2023-02-28T02:48:34;1.00;56.00
10192;DHT22;17580;50.850;4.504;2023-02-28T02:51:06;1.00;56.60
10192;DHT22;17580;50.850;4.504;2023-02-28T02:53:42;1.00;56.30
10192;DHT22;17580;50.850;4.504;2023-02-28T02:56:11;0.90;56.70
10192;DHT22;17580;50.850;4.504;2023-02-28T02:58:41;1.00;56.90
10192;DHT22;17580;50.850;4.504;2023-02-28T03:01:11;1.00;56.40
10192;DHT22;17580;50.850;4.504;2023-02-28T03:03:39;0.90;56.60
10192;DHT22;17580;50.850;4.504;2023-02-28T03:06:07;0.90;56.60
10192;DHT22;17580;50.850;4.504;2023-02-28T03:08:37;1.00;56.80
10192;DHT22;17580;50.850;4.504;2023-02-28T03:11:06;0.90;56.80
10192;DHT22;17580;50.850;4.504;2023-02-28T03:16:51;0.80;57.60
10192;DHT22;17580;50.850;4.504;2023-02-28T03:19:34;0.70;58.30
10192;DHT22;17580;50.850;4.504;2023-02-28T03:22:22;0.80;57.50
10192;DHT22;17580;50.850;4.504;2023-02-28T03:24:54;0.80;57.70
10192;DHT22;17580;50.850;4.504;2023-02-28T03:27:25;0.90;57.80
10192;DHT22;17580;50.850;4.504;2023-02-28T03:30:00;0.70;57.80
10192;DHT22;17580;50.850;4.504;2023-02-28T03:32:33;0.80;57.70
10192;DHT22;17580;50.850;4.504;2023-02-28T03:35:05;0.80;58.20
10192;DHT22;17580;50.850;4.504;2023-02-28T03:37:38;0.80;58.80
10192;DHT22;17580;50.850;4.504;2023-02-28T03:40:09;0.70;59.30
10192;DHT22;17580;50.850;4.504;2023-02-28T03:42:40;0.70;60.10
10192;DHT22;17580;50.850;4.504;2023-02-28T03:45:11;0.70;60.50
10192;DHT22;17580;50.850;4.504;2023-02-28T03:47:44;0.60;60.90
10192;DHT22;17580;50.850;4.504;2023-02-28T03:50:15;0.50;60.10
10192;DHT22;17580;50.850;4.504;2023-02-28T03:52:49;0.60;61.10
10192;DHT22;17580;50.850;4.504;2023-02-28T03:55:18;0.60;61.20
10192;DHT22;17580;50.850;4.504;2023-02-28T03:57:54;0.50;62.10
10192;DHT22;17580;50.850;4.504;2023-02-28T04:00:28;0.60;62.60
10192;DHT22;17580;50.850;4.504;2023-02-28T04:02:58;0.60;64.00
10192;DHT22;17580;50.850;4.504;2023-02-28T04:05:27;0.40;62.10
10192;DHT22;17580;50.850;4.504;2023-02-28T04:08:03;0.60;63.10
10192;DHT22;17580;50.850;4.504;2023-02-28T04:10:30;0.50;63.10
10192;DHT22;17580;50.850;4.504;2023-02-28T04:12:57;0.30;63.80
10192;DHT22;17580;50.850;4.504;2023-02-28T04:15:24;0.40;63.30
10192;DHT22;17580;50.850;4.504;2023-02-28T04:17:53;0.50;63.30
10192;DHT22;17580;50.850;4.504;2023-02-28T04:20:20;0.50;64.00
10192;DHT22;17580;50.850;4.504;2023-02-28T04:22:47;0.50;63.20
10192;DHT22;17580;50.850;4.504;2023-02-28T04:25:15;0.30;63.80
10192;DHT22;17580;50.850;4.504;2023-02-28T04:27:42;0.20;64.60
10192;DHT22;17580;50.850;4.504;2023-02-28T04:30:11;0.20;64.90
10192;DHT22;17580;50.850;4.504;2023-02-28T04:32:38;0.30;64.80
10192;DHT22;17580;50.850;4.504;2023-02-28T04:35:05;0.40;65.30
10192;DHT22;17580;50.850;4.504;2023-02-28T04:37:33;0.40;65.00
10192;DHT22;17580;50.850;4.504;2023-02-28T04:40:00;0.30;65.60
10192;DHT22;17580;50.850;4.504;2023-02-28T04:42:29;0.20;66.20
10192;DHT22;17580;50.850;4.504;2023-02-28T04:45:01;0.40;66.30
10192;DHT22;17580;50.850;4.504;2023-02-28T04:47:28;0.40;66.70
10192;DHT22;17580;50.850;4.504;2023-02-28T04:49:55;0.40;66.50
10192;DHT22;17580;50.850;4.504;2023-02-28T04:52:22;0.30;66.90
10192;DHT22;17580;50.850;4.504;2023-02-28T04:54:49;0.30;66.90
10192;DHT22;17580;50.850;4.504;2023-02-28T04:57:16;0.20;67.30
10192;DHT22;17580;50.850;4.504;2023-02-28T04:59:45;0.20;67.20
10192;DHT22;17580;50.850;4.504;2023-02-28T05:02:12;0.20;67.40
10192;DHT22;17580;50.850;4.504;2023-02-28T05:04:39;0.30;67.50
10192;DHT22;17580;50.850;4.504;2023-02-28T05:07:06;0.20;67.60
10192;DHT22;17580;50.850;4.504;2023-02-28T05:09:33;0.30;67.80
10192;DHT22;17580;50.850;4.504;2023-02-28T05:12:00;0.60;67.30
10192;DHT22;17580;50.850;4.504;2023-02-28T05:14:27;0.50;67.30
10192;DHT22;17580;50.850;4.504;2023-02-28T05:16:55;0.50;67.50
10192;DHT22;17580;50.850;4.504;2023-02-28T05:19:22;0.60;66.40
10192;DHT22;17580;50.850;4.504;2023-02-28T05:21:51;0.60;67.30
10192;DHT22;17580;50.850;4.504;2023-02-28T05:24:19;0.40;67.70
10192;DHT22;17580;50.850;4.504;2023-02-28T05:26:49;0.60;68.70
10192;DHT22;17580;50.850;4.504;2023-02-28T05:29:17;0.60;68.80
10192;DHT22;17580;50.850;4.504;2023-02-28T05:31:44;0.50;68.20
10192;DHT22;17580;50.850;4.504;2023-02-28T05:34:12;0.70;68.50
10192;DHT22;17580;50.850;4.504;2023-02-28T05:36:41;0.50;67.70
10192;DHT22;17580;50.850;4.504;2023-02-28T05:39:08;0.70;68.30
10192;DHT22;17580;50.850;4.504;2023-02-28T05:41:39;0.60;68.20
10192;DHT22;17580;50.850;4.504;2023-02-28T05:44:07;0.80;68.40
10192;DHT22;17580;50.850;4.504;2023-02-28T05:46:34;0.80;68.90
10192;DHT22;17580;50.850;4.504;2023-02-28T05:49:01;0.70;68.50
10192;DHT22;17580;50.850;4.504;2023-02-28T05:51:30;0.80;68.80
10192;DHT22;17580;50.850;4.504;2023-02-28T05:53:59;0.90;68.70
10192;DHT22;17580;50.850;4.504;2023-02-28T05:56:26;0.80;67.90
10192;DHT22;17580;50.850;4.504;2023-02-28T05:58:53;1.00;67.40
10192;DHT22;17580;50.850;4.504;2023-02-28T06:01:31;1.00;68.50
10192;DHT22;17580;50.850;4.504;2023-02-28T06:03:59;1.00;68.30
10192;DHT22;17580;50.850;4.504;2023-02-28T06:06:27;1.00;67.10
10192;DHT22;17580;50.850;4.504;2023-02-28T06:08:56;1.10;66.90
10192;DHT22;17580;50.850;4.504;2023-02-28T06:11:23;1.00;66.70
10192;DHT22;17580;50.850;4.504;2023-02-28T06:13:53;1.00;67.50
10192;DHT22;17580;50.850;4.504;2023-02-28T06:16:20;1.30;67.30
10192;DHT22;17580;50.850;4.504;2023-02-28T06:18:47;1.20;67.00
10192;DHT22;17580;50.850;4.504;2023-02-28T06:21:14;1.20;67.70
10192;DHT22;17580;50.850;4.504;2023-02-28T06:23:41;1.10;67.30
10192;DHT22;17580;50.850;4.504;2023-02-28T06:26:10;1.30;67.30
10192;DHT22;17580;50.850;4.504;2023-02-28T06:28:38;1.30;67.20
10192;DHT22;17580;50.850;4.504;2023-02-28T06:31:08;1.30;67.10
10192;DHT22;17580;50.850;4.504;2023-02-28T06:33:36;1.20;67.60
10192;DHT22;17580;50.850;4.504;2023-02-28T06:36:04;1.20;67.30
10192;DHT22;17580;50.850;4.504;2023-02-28T06:38:31;1.20;67.00
10192;DHT22;17580;50.850;4.504;2023-02-28T06:40:59;1.20;67.20
10192;DHT22;17580;50.850;4.504;2023-02-28T06:43:31;1.40;66.20
10192;DHT22;17580;50.850;4.504;2023-02-28T06:46:00;1.40;67.90
10192;DHT22;17580;50.850;4.504;2023-02-28T06:48:27;1.50;65.90
10192;DHT22;17580;50.850;4.504;2023-02-28T06:51:01;1.40;66.80
10192;DHT22;17580;50.850;4.504;2023-02-28T06:53:28;1.30;66.60
10192;DHT22;17580;50.850;4.504;2023-02-28T06:55:55;1.40;66.00
10192;DHT22;17580;50.850;4.504;2023-02-28T06:58:22;1.30;67.60
10192;DHT22;17580;50.850;4.504;2023-02-28T07:00:52;1.40;66.40
10192;DHT22;17580;50.850;4.504;2023-02-28T07:03:19;1.60;65.40
10192;DHT22;17580;50.850;4.504;2023-02-28T07:05:46;1.50;66.10
10192;DHT22;17580;50.850;4.504;2023-02-28T07:08:14;1.70;65.70
10192;DHT22;17580;50.850;4.504;2023-02-28T07:10:41;1.70;66.30
10192;DHT22;17580;50.850;4.504;2023-02-28T07:13:08;1.70;67.60
10192;DHT22;17580;50.850;4.504;2023-02-28T07:15:35;1.50;66.40
10192;DHT22;17580;50.850;4.504;2023-02-28T07:18:04;1.50;68.20
10192;DHT22;17580;50.850;4.504;2023-02-28T07:20:31;1.60;67.00
10192;DHT22;17580;50.850;4.504;2023-02-28T07:22:58;1.60;66.90
10192;DHT22;17580;50.850;4.504;2023-02-28T07:25:26;1.70;67.60
10192;DHT22;17580;50.850;4.504;2023-02-28T07:27:54;1.80;67.00
10192;DHT22;17580;50.850;4.504;2023-02-28T07:30:22;1.70;66.90
10192;DHT22;17580;50.850;4.504;2023-02-28T07:32:49;1.70;67.10
10192;DHT22;17580;50.850;4.504;2023-02-28T07:35:18;1.70;67.50
10192;DHT22;17580;50.850;4.504;2023-02-28T07:37:45;1.80;66.80
10192;DHT22;17580;50.850;4.504;2023-02-28T07:40:13;1.90;67.00
10192;DHT22;17580;50.850;4.504;2023-02-28T07:42:41;1.80;66.90
10192;DHT22;17580;50.850;4.504;2023-02-28T07:45:09;1.90;66.90
10192;DHT22;17580;50.850;4.504;2023-02-28T07:47:37;1.90;67.10
10192;DHT22;17580;50.850;4.504;2023-02-28T07:50:05;1.90;67.80
10192;DHT22;17580;50.850;4.504;2023-02-28T07:52:34;2.00;67.40
10192;DHT22;17580;50.850;4.504;2023-02-28T07:55:01;2.40;64.60
10192;DHT22;17580;50.850;4.504;2023-02-28T07:57:28;2.30;64.20
10192;DHT22;17580;50.850;4.504;2023-02-28T07:59:55;2.50;62.80
10192;DHT22;17580;50.850;4.504;2023-02-28T08:02:22;3.10;60.80
10192;DHT22;17580;50.850;4.504;2023-02-28T08:04:49;3.20;58.70
10192;DHT22;17580;50.850;4.504;2023-02-28T08:07:16;3.10;59.20
10192;DHT22;17580;50.850;4.504;2023-02-28T08:09:45;2.80;58.30
10192;DHT22;17580;50.850;4.504;2023-02-28T08:12:12;3.00;57.60
10192;DHT22;17580;50.850;4.504;2023-02-28T08:14:39;3.30;56.90
10192;DHT22;17580;50.850;4.504;2023-02-28T08:17:06;3.20;56.30
10192;DHT22;17580;50.850;4.504;2023-02-28T08:19:33;3.50;54.50
10192;DHT22;17580;50.850;4.504;2023-02-28T08:22:00;3.50;55.00
10192;DHT22;17580;50.850;4.504;2023-02-28T08:24:28;3.80;54.60
10192;DHT22;17580;50.850;4.504;2023-02-28T08:26:56;4.00;52.80
10192;DHT22;17580;50.850;4.504;2023-02-28T08:29:23;4.20;52.60
10192;DHT22;17580;50.850;4.504;2023-02-28T08:31:50;4.10;51.60
10192;DHT22;17580;50.850;4.504;2023-02-28T08:34:17;4.10;51.90
10192;DHT22;17580;50.850;4.504;2023-02-28T08:36:44;4.40;49.20
10192;DHT22;17580;50.850;4.504;2023-02-28T08:39:12;5.00;46.50
10192;DHT22;17580;50.850;4.504;2023-02-28T08:41:39;5.70;46.50
10192;DHT22;17580;50.850;4.504;2023-02-28T08:44:08;6.30;43.30
10192;DHT22;17580;50.850;4.504;2023-02-28T08:46:35;7.40;41.50
10192;DHT22;17580;50.850;4.504;2023-02-28T08:49:02;8.30;39.90
10192;DHT22;17580;50.850;4.504;2023-02-28T08:51:29;9.70;36.20
10192;DHT22;17580;50.850;4.504;2023-02-28T08:53:59;10.90;29.60
10192;DHT22;17580;50.850;4.504;2023-02-28T08:56:27;11.20;26.50
10192;DHT22;17580;50.850;4.504;2023-02-28T08:58:56;11.80;23.10
10192;DHT22;17580;50.850;4.504;2023-02-28T09:01:25;12.40;21.80
10192;DHT22;17580;50.850;4.504;2023-02-28T09:03:54;12.90;18.70
10192;DHT22;17580;50.850;4.504;2023-02-28T09:06:23;13.10;17.10
10192;DHT22;17580;50.850;4.504;2023-02-28T09:08:50;13.30;14.60
10192;DHT22;17580;50.850;4.504;2023-02-28T09:11:17;13.60;13.00
10192;DHT22;17580;50.850;4.504;2023-02-28T09:13:45;13.90;10.70
10192;DHT22;17580;50.850;4.504;2023-02-28T09:16:14;14.30;9.90
10192;DHT22;17580;50.850;4.504;2023-02-28T09:18:43;14.40;8.40
10192;DHT22;17580;50.850;4.504;2023-02-28T09:21:13;14.80;8.50
10192;DHT22;17580;50.850;4.504;2023-02-28T09:23:40;15.30;6.00
10192;DHT22;17580;50.850;4.504;2023-02-28T09:26:12;15.30;2.60
10192;DHT22;17580;50.850;4.504;2023-02-28T09:28:39;15.30;3.50
10192;DHT22;17580;50.850;4.504;2023-02-28T09:31:10;15.20;4.40
10192;DHT22;17580;50.850;4.504;2023-02-28T09:33:38;15.00;3.90
10192;DHT22;17580;50.850;4.504;2023-02-28T09:36:07;15.00;2.30
10192;DHT22;17580;50.850;4.504;2023-02-28T09:38:34;15.10;1.00
10192;DHT22;17580;50.850;4.504;2023-02-28T09:41:04;15.30;1.00
10192;DHT22;17580;50.850;4.504;2023-02-28T09:43:38;15.60;1.00
10192;DHT22;17580;50.850;4.504;2023-02-28T09:46:17;15.60;1.00
10192;DHT22;17580;50.850;4.504;2023-02-28T09:48:47;16.10;1.00
10192;DHT22;17580;50.850;4.504;2023-02-28T09:51:28;15.70;1.00
10192;DHT22;17580;50.850;4.504;2023-02-28T09:53:56;15.80;1.00
10192;DHT22;17580;50.850;4.504;2023-02-28T09:56:26;15.80;1.00
10192;DHT22;17580;50.850;4.504;2023-02-28T09:58:57;16.20;1.00
10192;DHT22;17580;50.850;4.504;2023-02-28T10:01:31;16.60;1.00
10192;DHT22;17580;50.850;4.504;2023-02-28T10:04:05;16.20;1.00
10192;DHT22;17580;50.850;4.504;2023-02-28T10:06:41;16.60;1.00
10192;DHT22;17580;50.850;4.504;2023-02-28T10:09:15;16.20;1.00
10192;DHT22;17580;50.850;4.504;2023-02-28T10:11:46;15.90;1.00
10192;DHT22;17580;50.850;4.504;2023-02-28T10:14:16;16.60;1.00
10192;DHT22;17580;50.850;4.504;2023-02-28T10:16:47;16.40;1.00
10192;DHT22;17580;50.850;4.504;2023-02-28T10:19:20;16.60;1.00
10192;DHT22;17580;50.850;4.504;2023-02-28T10:21:56;16.40;1.00
10192;DHT22;17580;50.850;4.504;2023-02-28T10:24:28;16.00;1.00
10192;DHT22;17580;50.850;4.504;2023-02-28T10:27:00;16.60;1.00
10192;DHT22;17580;50.850;4.504;2023-02-28T10:29:31;16.70;1.00
10192;DHT22;17580;50.850;4.504;2023-02-28T10:32:01;16.80;1.00
10192;DHT22;17580;50.850;4.504;2023-02-28T10:34:29;16.10;1.00
10192;DHT22;17580;50.850;4.504;2023-02-28T10:36:59;15.50;1.00
10192;DHT22;17580;50.850;4.504;2023-02-28T10:39:40;15.90;1.00
10192;DHT22;17580;50.850;4.504;2023-02-28T10:42:20;16.10;1.00
10192;DHT22;17580;50.850;4.504;2023-02-28T10:44:48;16.10;1.00
10192;DHT22;17580;50.850;4.504;2023-02-28T10:47:17;15.60;1.00
10192;DHT22;17580;50.850;4.504;2023-02-28T10:49:48;16.00;1.00
10192;DHT22;17580;50.850;4.504;2023-02-28T10:55:22;16.10;1.00
10192;DHT22;17580;50.850;4.504;2023-02-28T10:57:50;15.40;1.00
10192;DHT22;17580;50.850;4.504;2023-02-28T11:00:20;14.80;1.00
10192;DHT22;17580;50.850;4.504;2023-02-28T11:02:48;15.40;1.00
10192;DHT22;17580;50.850;4.504;2023-02-28T11:05:27;14.90;1.00
10192;DHT22;17580;50.850;4.504;2023-02-28T11:07:56;15.10;1.00
10192;DHT22;17580;50.850;4.504;2023-02-28T11:10:28;14.40;1.00
10192;DHT22;17580;50.850;4.504;2023-02-28T11:12:58;13.30;1.00
10192;DHT22;17580;50.850;4.504;2023-02-28T11:15:26;13.60;1.00
10192;DHT22;17580;50.850;4.504;2023-02-28T11:17:56;14.40;1.00
10192;DHT22;17580;50.850;4.504;2023-02-28T11:20:26;14.50;1.00
10192;DHT22;17580;50.850;4.504;2023-02-28T11:22:54;15.10;1.00
10192;DHT22;17580;50.850;4.504;2023-02-28T11:25:25;15.10;1.00
10192;DHT22;17580;50.850;4.504;2023-02-28T11:27:54;14.90;1.00
10192;DHT22;17580;50.850;4.504;2023-02-28T11:30:31;14.70;1.00
10192;DHT22;17580;50.850;4.504;2023-02-28T11:32:59;15.70;1.00
10192;DHT22;17580;50.850;4.504;2023-02-28T11:35:30;13.50;1.00
10192;DHT22;17580;50.850;4.504;2023-02-28T11:37:57;13.50;1.00
10192;DHT22;17580;50.850;4.504;2023-02-28T11:40:34;12.80;1.00
10192;DHT22;17580;50.850;4.504;2023-02-28T11:43:17;12.40;1.00
10192;DHT22;17580;50.850;4.504;2023-02-28T11:46:04;11.80;1.00
10192;DHT22;17580;50.850;4.504;2023-02-28T11:48:39;12.80;1.00
10192;DHT22;17580;50.850;4.504;2023-02-28T11:51:15;13.70;1.00
10192;DHT22;17580;50.850;4.504;2023-02-28T11:53:55;14.80;1.00
10192;DHT22;17580;50.850;4.504;2023-02-28T11:56:32;14.50;1.00
10192;DHT22;17580;50.850;4.504;2023-02-28T11:59:13;14.90;1.00
10192;DHT22;17580;50.850;4.504;2023-02-28T12:04:44;16.10;1.00
10192;DHT22;17580;50.850;4.504;2023-02-28T12:07:18;16.40;1.00
10192;DHT22;17580;50.850;4.504;2023-02-28T12:09:56;16.30;1.00
10192;DHT22;17580;50.850;4.504;2023-02-28T12:12:37;16.20;1.00
10192;DHT22;17580;50.850;4.504;2023-02-28T12:15:17;16.20;1.00
10192;DHT22;17580;50.850;4.504;2023-02-28T12:20:46;16.10;1.00
10192;DHT22;17580;50.850;4.504;2023-02-28T12:23:40;15.40;1.00
10192;DHT22;17580;50.850;4.504;2023-02-28T12:26:14;15.50;1.00
10192;DHT22;17580;50.850;4.504;2023-02-28T12:28:51;15.50;1.00
10192;DHT22;17580;50.850;4.504;2023-02-28T12:31:21;15.30;1.00
10192;DHT22;17580;50.850;4.504;2023-02-28T12:33:52;15.60;1.00
10192;DHT22;17580;50.850;4.504;2023-02-28T12:36:20;15.40;1.00
10192;DHT22;17580;50.850;4.504;2023-02-28T12:38:53;15.60;1.00
10192;DHT22;17580;50.850;4.504;2023-02-28T12:41:27;15.30;1.00
10192;DHT22;17580;50.850;4.504;2023-02-28T12:44:01;15.10;1.00
10192;DHT22;17580;50.850;4.504;2023-02-28T12:46:32;14.70;1.00
10192;DHT22;17580;50.850;4.504;2023-02-28T12:49:05;14.40;1.00
10192;DHT22;17580;50.850;4.504;2023-02-28T12:51:34;14.40;1.00
10192;DHT22;17580;50.850;4.504;2023-02-28T12:54:10;14.70;1.00
10192;DHT22;17580;50.850;4.504;2023-02-28T12:56:44;14.50;1.00
10192;DHT22;17580;50.850;4.504;2023-02-28T12:59:23;14.50;1.00
10192;DHT22;17580;50.850;4.504;2023-02-28T13:02:14;14.20;1.00
10192;DHT22;17580;50.850;4.504;2023-02-28T13:08:39;14.10;1.00
10192;DHT22;17580;50.850;4.504;2023-02-28T13:11:24;14.00;1.00
10192;DHT22;17580;50.850;4.504;2023-02-28T13:13:57;13.60;1.00
10192;DHT22;17580;50.850;4.504;2023-02-28T13:16:26;13.70;1.00
10192;DHT22;17580;50.850;4.504;2023-02-28T13:19:08;13.20;1.00
10192;DHT22;17580;50.850;4.504;2023-02-28T13:21:42;12.90;1.00
10192;DHT22;17580;50.850;4.504;2023-02-28T13:24:11;12.70;1.00
10192;DHT22;17580;50.850;4.504;2023-02-28T13:27:35;12.40;1.00
10192;DHT22;17580;50.850;4.504;2023-02-28T13:33:29;12.60;1.00
10192;DHT22;17580;50.850;4.504;2023-02-28T13:36:09;12.90;1.00
10192;DHT22;17580;50.850;4.504;2023-02-28T13:38:39;12.80;1.00
10192;DHT22;17580;50.850;4.504;2023-02-28T13:44:11;12.90;1.00
10192;DHT22;17580;50.850;4.504;2023-02-28T13:49:41;12.30;1.00
10192;DHT22;17580;50.850;4.504;2023-02-28T13:52:15;12.20;1.00
10192;DHT22;17580;50.850;4.504;2023-02-28T13:54:58;11.90;1.00
10192;DHT22;17580;50.850;4.504;2023-02-28T13:57:37;11.60;1.00
10192;DHT22;17580;50.850;4.504;2023-02-28T14:00:20;11.80;1.00
10192;DHT22;17580;50.850;4.504;2023-02-28T14:03:09;11.70;1.00
10192;DHT22;17580;50.850;4.504;2023-02-28T14:05:41;10.90;1.00
10192;DHT22;17580;50.850;4.504;2023-02-28T14:08:15;10.00;1.00
10192;DHT22;17580;50.850;4.504;2023-02-28T14:10:44;9.40;1.00
10192;DHT22;17580;50.850;4.504;2023-02-28T14:13:36;9.20;1.00
10192;DHT22;17580;50.850;4.504;2023-02-28T14:16:04;9.20;1.00
10192;DHT22;17580;50.850;4.504;2023-02-28T14:18:33;9.10;1.00
10192;DHT22;17580;50.850;4.504;2023-02-28T14:21:13;9.10;1.00
10192;DHT22;17580;50.850;4.504;2023-02-28T14:24:09;9.00;1.00
10192;DHT22;17580;50.850;4.504;2023-02-28T14:30:04;8.70;1.00
10192;DHT22;17580;50.850;4.504;2023-02-28T14:32:44;8.70;1.00
10192;DHT22;17580;50.850;4.504;2023-02-28T14:35:21;8.60;1.00
10192;DHT22;17580;50.850;4.504;2023-02-28T14:37:56;8.60;1.00
10192;DHT22;17580;50.850;4.504;2023-02-28T14:40:27;8.40;1.00
10192;DHT22;17580;50.850;4.504;2023-02-28T14:42:58;8.40;1.00
10192;DHT22;17580;50.850;4.504;2023-02-28T14:45:28;8.30;1.00
10192;DHT22;17580;50.850;4.504;2023-02-28T14:47:57;8.10;1.00
10192;DHT22;17580;50.850;4.504;2023-02-28T14:50:35;8.20;1.00
10192;DHT22;17580;50.850;4.504;2023-02-28T14:53:04;8.30;1.00
10192;DHT22;17580;50.850;4.504;2023-02-28T14:55:35;8.20;1.00
10192;DHT22;17580;50.850;4.504;2023-02-28T14:58:04;8.00;1.00
10192;DHT22;17580;50.850;4.504;2023-02-28T15:00:33;8.00;1.00
10192;DHT22;17580;50.850;4.504;2023-02-28T15:03:17;8.10;1.00
10192;DHT22;17580;50.850;4.504;2023-02-28T15:05:51;7.90;1.00
10192;DHT22;17580;50.850;4.504;2023-02-28T15:08:20;7.90;1.00
10192;DHT22;17580;50.850;4.504;2023-02-28T15:10:53;7.60;1.00
10192;DHT22;17580;50.850;4.504;2023-02-28T15:13:21;7.50;1.00
10192;DHT22;17580;50.850;4.504;2023-02-28T15:15:51;7.30;1.00
10192;DHT22;17580;50.850;4.504;2023-02-28T15:18:33;7.40;1.00
10192;DHT22;17580;50.850;4.504;2023-02-28T15:21:06;7.60;1.00
10192;DHT22;17580;50.850;4.504;2023-02-28T15:23:36;7.50;1.00
10192;DHT22;17580;50.850;4.504;2023-02-28T15:26:05;7.60;1.00
10192;DHT22;17580;50.850;4.504;2023-02-28T15:28:32;7.40;1.00
10192;DHT22;17580;50.850;4.504;2023-02-28T15:31:01;7.40;1.00
10192;DHT22;17580;50.850;4.504;2023-02-28T15:33:29;7.30;1.00
10192;DHT22;17580;50.850;4.504;2023-02-28T15:36:13;7.30;1.00
10192;DHT22;17580;50.850;4.504;2023-02-28T15:38:42;7.30;1.00
10192;DHT22;17580;50.850;4.504;2023-02-28T15:41:23;7.20;1.00
10192;DHT22;17580;50.850;4.504;2023-02-28T15:44:14;7.10;1.00
10192;DHT22;17580;50.850;4.504;2023-02-28T15:46:53;7.10;1.00
10192;DHT22;17580;50.850;4.504;2023-02-28T15:49:21;7.00;1.00
10192;DHT22;17580;50.850;4.504;2023-02-28T15:51:49;6.90;1.00
10192;DHT22;17580;50.850;4.504;2023-02-28T15:54:21;6.90;1.00
10192;DHT22;17580;50.850;4.504;2023-02-28T15:56:51;6.90;1.00
10192;DHT22;17580;50.850;4.504;2023-02-28T15:59:22;6.90;1.00
10192;DHT22;17580;50.850;4.504;2023-02-28T16:02:14;6.90;1.00
10192;DHT22;17580;50.850;4.504;2023-02-28T16:05:00;6.90;1.00
10192;DHT22;17580;50.850;4.504;2023-02-28T16:07:28;6.70;1.00
10192;DHT22;17580;50.850;4.504;2023-02-28T16:09:56;6.60;1.00
10192;DHT22;17580;50.850;4.504;2023-02-28T16:12:26;6.60;1.00
10192;DHT22;17580;50.850;4.504;2023-02-28T16:14:55;6.50;1.00
10192;DHT22;17580;50.850;4.504;2023-02-28T16:17:25;6.40;1.00
10192;DHT22;17580;50.850;4.504;2023-02-28T16:19:53;6.50;1.00
10192;DHT22;17580;50.850;4.504;2023-02-28T16:22:20;6.50;1.00
10192;DHT22;17580;50.850;4.504;2023-02-28T16:24:47;6.40;1.00
10192;DHT22;17580;50.850;4.504;2023-02-28T16:27:19;6.30;1.00
10192;DHT22;17580;50.850;4.504;2023-02-28T16:29:47;6.30;1.00
10192;DHT22;17580;50.850;4.504;2023-02-28T16:32:15;6.30;1.00
10192;DHT22;17580;50.850;4.504;2023-02-28T16:34:43;6.30;1.00
10192;DHT22;17580;50.850;4.504;2023-02-28T16:37:12;6.20;1.00
10192;DHT22;17580;50.850;4.504;2023-02-28T16:39:40;6.20;1.40
10192;DHT22;17580;50.850;4.504;2023-02-28T16:42:11;6.10;1.00
10192;DHT22;17580;50.850;4.504;2023-02-28T16:44:43;6.10;1.00
10192;DHT22;17580;50.850;4.504;2023-02-28T16:47:11;6.00;1.00
10192;DHT22;17580;50.850;4.504;2023-02-28T16:49:38;6.00;1.00